createdAt,value
2022-10-22T00:00:10.263Z,18.30
2022-10-22T00:02:37.529Z,18.40
2022-10-22T00:05:05.284Z,18.30
2022-10-22T00:07:33.802Z,18.40
2022-10-22T00:10:01.686Z,18.30
2022-10-22T00:12:37.807Z,18.30
2022-10-22T00:15:10.343Z,18.30
2022-10-22T00:17:41.240Z,18.30
2022-10-22T00:20:12.354Z,18.30
2022-10-22T00:22:39.870Z,18.30
2022-10-22T00:25:13.179Z,18.30
2022-10-22T00:27:40.633Z,18.30
2022-10-22T00:30:09.611Z,18.20
2022-10-22T00:32:38.528Z,18.30
2022-10-22T00:35:07.706Z,18.30
2022-10-22T00:37:35.118Z,18.20
2022-10-22T00:40:02.337Z,18.20
2022-10-22T00:42:43.339Z,18.20
2022-10-22T00:45:22.422Z,18.10
2022-10-22T00:47:58.939Z,18.00
2022-10-22T00:50:44.950Z,18.00
2022-10-22T00:53:16.735Z,17.90
2022-10-22T00:55:47.735Z,17.90
2022-10-22T00:58:15.886Z,17.80
2022-10-22T01:00:43.375Z,17.80
2022-10-22T01:03:10.980Z,17.80
2022-10-22T01:05:51.592Z,17.80
2022-10-22T01:08:48.461Z,17.90
2022-10-22T01:11:35.924Z,17.90
2022-10-22T01:14:40.493Z,17.90
2022-10-22T01:17:25.109Z,17.90
2022-10-22T01:20:19.852Z,17.90
2022-10-22T01:23:21.804Z,17.80
2022-10-22T01:25:58.736Z,17.80
2022-10-22T01:29:06.749Z,17.70
2022-10-22T01:31:41.656Z,17.70
2022-10-22T01:34:09.878Z,17.70
2022-10-22T01:36:38.693Z,17.60
2022-10-22T01:39:07.394Z,17.60
2022-10-22T01:41:35.263Z,17.60
2022-10-22T01:44:02.497Z,17.50
2022-10-22T01:46:30.144Z,17.50
2022-10-22T01:49:15.041Z,17.50
2022-10-22T01:52:16.100Z,17.50
2022-10-22T01:54:53.495Z,17.50
2022-10-22T01:57:44.172Z,17.50
2022-10-22T02:00:14.084Z,17.40
2022-10-22T02:02:44.114Z,17.40
2022-10-22T02:05:34.044Z,17.40
2022-10-22T02:08:11.094Z,17.50
2022-10-22T02:10:41.230Z,17.40
2022-10-22T02:13:17.449Z,17.40
2022-10-22T02:15:46.782Z,17.50
2022-10-22T02:18:15.302Z,17.40
2022-10-22T02:20:42.878Z,17.40
2022-10-22T02:23:11.310Z,17.40
2022-10-22T02:25:47.066Z,17.50
2022-10-22T02:28:32.254Z,17.50
2022-10-22T02:31:18.595Z,17.50
2022-10-22T02:33:52.501Z,17.50
2022-10-22T02:36:20.593Z,17.50
2022-10-22T02:38:50.386Z,17.50
2022-10-22T02:41:18.502Z,17.50
2022-10-22T02:43:51.445Z,17.50
2022-10-22T02:46:18.646Z,17.50
2022-10-22T02:48:45.638Z,17.50
2022-10-22T02:51:12.737Z,17.50
2022-10-22T02:53:39.761Z,17.50
2022-10-22T02:56:07.405Z,17.50
2022-10-22T02:58:34.449Z,17.50
2022-10-22T03:01:01.651Z,17.50
2022-10-22T03:03:28.793Z,17.50
2022-10-22T03:05:55.810Z,17.50
2022-10-22T03:08:22.958Z,17.50
2022-10-22T03:10:50.113Z,17.50
2022-10-22T03:13:17.067Z,17.50
2022-10-22T03:15:44.196Z,17.50
2022-10-22T03:18:11.164Z,17.50
2022-10-22T03:20:38.159Z,17.50
2022-10-22T03:23:05.188Z,17.50
2022-10-22T03:25:34.613Z,17.50
2022-10-22T03:28:09.338Z,17.50
2022-10-22T03:30:36.730Z,17.50
2022-10-22T03:33:03.778Z,17.50
2022-10-22T03:35:31.784Z,17.50
2022-10-22T03:38:01.410Z,17.60
2022-10-22T03:40:28.443Z,17.60
2022-10-22T03:42:55.757Z,17.60
2022-10-22T03:45:22.855Z,17.60
2022-10-22T03:47:49.960Z,17.60
2022-10-22T03:50:17.380Z,17.60
2022-10-22T03:52:44.332Z,17.60
2022-10-22T03:55:11.345Z,17.50
2022-10-22T03:57:38.611Z,17.60
2022-10-22T04:00:06.970Z,17.60
2022-10-22T04:02:33.927Z,17.60
2022-10-22T04:05:01.024Z,17.60
2022-10-22T04:07:28.112Z,17.60
2022-10-22T04:09:55.099Z,17.60
2022-10-22T04:12:22.075Z,17.60
2022-10-22T04:14:49.202Z,17.60
2022-10-22T04:17:16.323Z,17.60
2022-10-22T04:19:43.554Z,17.60
2022-10-22T04:22:10.615Z,17.60
2022-10-22T04:24:38.217Z,17.60
2022-10-22T04:27:05.352Z,17.70
2022-10-22T04:29:32.504Z,17.70
2022-10-22T04:31:59.585Z,17.60
2022-10-22T04:34:29.881Z,17.70
2022-10-22T04:36:56.903Z,17.70
2022-10-22T04:39:24.015Z,17.70
2022-10-22T04:41:51.036Z,17.60
2022-10-22T04:44:18.570Z,17.60
2022-10-22T04:46:45.958Z,17.60
2022-10-22T04:49:13.025Z,17.60
2022-10-22T04:51:40.426Z,17.60
2022-10-22T04:54:07.421Z,17.60
2022-10-22T04:56:34.486Z,17.60
2022-10-22T04:59:07.082Z,17.50
2022-10-22T05:01:42.659Z,17.60
2022-10-22T05:04:15.574Z,17.60
2022-10-22T05:06:43.192Z,17.60
2022-10-22T05:09:15.930Z,17.50
2022-10-22T05:11:48.871Z,17.60
2022-10-22T05:14:23.759Z,17.50
2022-10-22T05:16:51.883Z,17.60
2022-10-22T05:19:24.154Z,17.50
2022-10-22T05:21:54.472Z,17.50
2022-10-22T05:24:22.225Z,17.60
2022-10-22T05:26:50.968Z,17.50
2022-10-22T05:29:18.564Z,17.50
2022-10-22T05:31:45.890Z,17.50
2022-10-22T05:34:13.447Z,17.50
2022-10-22T05:36:40.986Z,17.50
2022-10-22T05:39:08.159Z,17.50
2022-10-22T05:41:38.374Z,17.50
2022-10-22T05:44:06.071Z,17.50
2022-10-22T05:46:35.777Z,17.50
2022-10-22T05:49:04.783Z,17.50
2022-10-22T05:51:34.841Z,17.50
2022-10-22T05:54:04.260Z,17.50
2022-10-22T05:56:32.270Z,17.50
2022-10-22T05:59:00.233Z,17.50
2022-10-22T06:01:30.200Z,17.50
2022-10-22T06:03:59.557Z,17.50
2022-10-22T06:06:34.753Z,17.50
2022-10-22T06:09:06.580Z,17.50
2022-10-22T06:11:35.246Z,17.60
2022-10-22T06:14:02.930Z,17.60
2022-10-22T06:16:30.984Z,17.60
2022-10-22T06:19:01.932Z,17.60
2022-10-22T06:21:29.395Z,17.60
2022-10-22T06:23:57.808Z,17.60
2022-10-22T06:26:24.870Z,17.60
2022-10-22T06:28:51.860Z,17.70
2022-10-22T06:31:18.996Z,17.60
2022-10-22T06:33:45.942Z,17.70
2022-10-22T06:36:24.371Z,17.70
2022-10-22T06:38:55.715Z,17.70
2022-10-22T06:41:25.756Z,17.80
2022-10-22T06:43:57.916Z,17.80
2022-10-22T06:46:25.695Z,17.90
2022-10-22T06:48:58.043Z,17.90
2022-10-22T06:51:26.734Z,17.90
2022-10-22T06:53:55.685Z,18.00
2022-10-22T06:56:24.764Z,18.00
2022-10-22T06:58:53.767Z,18.00
2022-10-22T07:01:23.410Z,18.00
2022-10-22T07:03:51.936Z,18.00
2022-10-22T07:06:19.722Z,18.10
2022-10-22T07:08:46.824Z,18.20
2022-10-22T07:11:17.799Z,18.30
2022-10-22T07:13:45.619Z,18.40
2022-10-22T07:16:13.489Z,18.50
2022-10-22T07:18:41.556Z,18.80
2022-10-22T07:21:10.249Z,19.10
2022-10-22T07:23:37.469Z,19.30
2022-10-22T07:26:07.340Z,19.60
2022-10-22T07:28:39.784Z,19.60
2022-10-22T07:31:08.790Z,19.70
2022-10-22T07:33:35.870Z,19.60
2022-10-22T07:36:05.463Z,19.60
2022-10-22T07:38:32.816Z,19.50
2022-10-22T07:41:00.195Z,19.40
2022-10-22T07:43:27.502Z,19.30
2022-10-22T07:45:55.940Z,19.20
2022-10-22T07:48:24.098Z,19.30
2022-10-22T07:50:52.012Z,19.20
2022-10-22T07:53:19.255Z,19.20
2022-10-22T07:55:49.535Z,19.30
2022-10-22T07:58:20.150Z,19.30
2022-10-22T08:00:47.780Z,19.40
2022-10-22T08:03:15.971Z,19.40
2022-10-22T08:05:43.909Z,19.40
2022-10-22T08:08:15.187Z,19.50
2022-10-22T08:10:42.935Z,19.60
2022-10-22T08:13:09.891Z,19.70
2022-10-22T08:15:37.042Z,19.80
2022-10-22T08:18:04.420Z,20.00
2022-10-22T08:20:32.244Z,20.10
2022-10-22T08:22:59.502Z,20.20
2022-10-22T08:25:27.144Z,20.30
2022-10-22T08:27:54.253Z,20.30
2022-10-22T08:30:21.292Z,20.20
2022-10-22T08:32:50.488Z,20.20
2022-10-22T08:35:20.194Z,20.20
2022-10-22T08:37:47.277Z,20.10
2022-10-22T08:40:31.656Z,20.10
2022-10-22T08:43:01.471Z,20.10
2022-10-22T08:45:43.150Z,20.10
2022-10-22T08:48:54.130Z,20.10
2022-10-22T08:51:30.288Z,20.20
2022-10-22T08:53:59.948Z,20.20
2022-10-22T08:56:27.289Z,20.20
2022-10-22T08:59:14.459Z,20.20
2022-10-22T09:01:47.978Z,20.20
2022-10-22T09:04:26.632Z,20.30
2022-10-22T09:06:55.494Z,20.30
2022-10-22T09:09:25.790Z,20.30
2022-10-22T09:11:55.321Z,20.30
2022-10-22T09:14:24.559Z,20.30
2022-10-22T09:17:21.538Z,20.40
2022-10-22T09:20:10.339Z,20.40
2022-10-22T09:22:51.043Z,20.50
2022-10-22T09:25:27.525Z,20.50
2022-10-22T09:27:58.517Z,20.60
2022-10-22T09:30:28.572Z,20.50
2022-10-22T09:33:02.717Z,20.60
2022-10-22T09:35:35.143Z,20.70
2022-10-22T09:38:07.877Z,20.80
2022-10-22T09:40:49.899Z,21.00
2022-10-22T09:43:16.994Z,21.10
2022-10-22T09:45:49.115Z,21.30
2022-10-22T09:48:26.537Z,21.40
2022-10-22T09:51:18.544Z,21.70
2022-10-22T09:54:00.991Z,22.10
2022-10-22T09:56:37.074Z,22.30
2022-10-22T09:59:04.663Z,22.50
2022-10-22T10:01:36.413Z,22.60
2022-10-22T10:04:10.370Z,22.60
2022-10-22T10:06:40.338Z,22.50
2022-10-22T10:09:23.006Z,22.40
2022-10-22T10:12:06.831Z,22.40
2022-10-22T10:14:59.954Z,22.50
2022-10-22T10:17:29.657Z,22.50
2022-10-22T10:20:04.289Z,22.70
2022-10-22T10:23:04.064Z,22.80
2022-10-22T10:25:43.080Z,22.90
2022-10-22T10:28:12.979Z,22.90
2022-10-22T10:30:59.493Z,23.00
2022-10-22T10:34:00.539Z,22.90
2022-10-22T10:36:49.641Z,22.90
2022-10-22T10:39:30.063Z,22.90
2022-10-22T10:42:03.221Z,23.00
2022-10-22T10:44:39.260Z,23.20
2022-10-22T10:47:06.219Z,23.30
2022-10-22T10:49:36.739Z,23.40
2022-10-22T10:52:20.513Z,23.40
2022-10-22T10:55:07.198Z,23.60
2022-10-22T10:58:03.296Z,24.50
2022-10-22T11:00:36.547Z,24.90
2022-10-22T11:03:37.472Z,24.80
2022-10-22T11:06:10.298Z,24.60
2022-10-22T11:08:45.481Z,24.50
2022-10-22T11:11:36.595Z,24.50
2022-10-22T11:14:41.670Z,24.30
2022-10-22T11:17:17.482Z,24.10
2022-10-22T11:20:19.688Z,23.80
2022-10-22T11:23:18.236Z,23.60
2022-10-22T11:25:48.422Z,23.50
2022-10-22T11:28:52.635Z,23.50
2022-10-22T11:31:20.750Z,23.50
2022-10-22T11:34:09.863Z,23.50
2022-10-22T11:36:43.459Z,23.80
2022-10-22T11:39:34.387Z,24.10
2022-10-22T11:42:06.821Z,24.50
2022-10-22T11:45:00.607Z,24.50
2022-10-22T11:47:57.462Z,24.30
2022-10-22T11:50:27.226Z,24.10
2022-10-22T11:53:07.875Z,24.00
2022-10-22T11:55:51.626Z,23.80
2022-10-22T11:58:39.351Z,23.60
2022-10-22T12:01:09.357Z,23.40
2022-10-22T12:03:48.266Z,23.10
2022-10-22T12:06:15.792Z,23.00
2022-10-22T12:08:57.414Z,22.80
2022-10-22T12:11:36.480Z,22.80
2022-10-22T12:14:24.411Z,22.70
2022-10-22T12:17:07.482Z,22.70
2022-10-22T12:19:56.421Z,22.80
2022-10-22T12:22:29.983Z,22.90
2022-10-22T12:25:02.116Z,22.80
2022-10-22T12:27:36.425Z,22.50
2022-10-22T12:30:22.814Z,22.20
2022-10-22T12:32:56.415Z,21.90
2022-10-22T12:35:27.220Z,21.70
2022-10-22T12:38:00.875Z,21.60
2022-10-22T12:40:31.680Z,21.40
2022-10-22T12:43:01.603Z,21.20
2022-10-22T12:45:33.997Z,21.10
2022-10-22T12:48:03.797Z,21.00
2022-10-22T12:51:00.243Z,20.80
2022-10-22T12:53:37.991Z,20.70
2022-10-22T12:56:10.558Z,20.70
2022-10-22T12:58:41.763Z,20.60
2022-10-22T13:01:15.421Z,20.80
2022-10-22T13:03:44.694Z,20.80
2022-10-22T13:06:25.730Z,20.80
2022-10-22T13:09:23.753Z,20.80
2022-10-22T13:11:58.239Z,21.00
2022-10-22T13:14:25.165Z,21.10
2022-10-22T13:17:11.728Z,21.40
2022-10-22T13:20:05.311Z,21.60
2022-10-22T13:22:38.851Z,21.80
2022-10-22T13:25:14.953Z,22.00
2022-10-22T13:27:46.685Z,22.10
2022-10-22T13:30:37.676Z,22.20
2022-10-22T13:33:07.213Z,22.20
2022-10-22T13:35:38.658Z,22.20
2022-10-22T13:38:19.571Z,22.30
2022-10-22T13:40:47.404Z,22.50
2022-10-22T13:43:16.096Z,22.90
2022-10-22T13:45:46.787Z,23.30
2022-10-22T13:48:19.999Z,23.60
2022-10-22T13:50:46.973Z,23.60
2022-10-22T13:53:25.714Z,23.70
2022-10-22T13:55:53.055Z,24.30
2022-10-22T13:58:24.569Z,25.20
2022-10-22T14:00:56.957Z,26.20
2022-10-22T14:03:29.103Z,26.80
2022-10-22T14:05:56.401Z,26.80
2022-10-22T14:08:25.983Z,26.90
2022-10-22T14:10:54.258Z,26.90
2022-10-22T14:13:21.801Z,26.40
2022-10-22T14:15:50.917Z,26.10
2022-10-22T14:18:26.354Z,26.20
2022-10-22T14:20:56.935Z,26.50
2022-10-22T14:23:27.024Z,27.00
2022-10-22T14:25:54.438Z,27.30
2022-10-22T14:28:21.384Z,27.60
2022-10-22T14:30:48.843Z,27.70
2022-10-22T14:33:21.120Z,27.90
2022-10-22T14:35:48.691Z,27.90
2022-10-22T14:38:16.148Z,28.00
2022-10-22T14:40:43.792Z,27.90
2022-10-22T14:43:25.516Z,27.50
2022-10-22T14:45:52.888Z,27.30
2022-10-22T14:50:54.474Z,27.10
2022-10-22T14:53:21.360Z,27.00
2022-10-22T14:55:51.461Z,26.70
2022-10-22T14:58:18.627Z,26.20
2022-10-22T15:00:45.593Z,25.70
2022-10-22T15:03:12.679Z,25.20
2022-10-22T15:05:44.553Z,24.80
2022-10-22T15:08:14.198Z,24.40
2022-10-22T15:10:41.752Z,24.00
2022-10-22T15:13:09.365Z,23.60
2022-10-22T15:15:39.766Z,23.30
2022-10-22T15:18:07.675Z,23.10
2022-10-22T15:20:34.656Z,22.80
2022-10-22T15:23:01.769Z,22.60
2022-10-22T15:25:28.917Z,22.50
2022-10-22T15:28:00.759Z,22.30
2022-10-22T15:30:34.531Z,22.20
2022-10-22T15:33:02.078Z,22.10
2022-10-22T15:35:29.096Z,21.90
2022-10-22T15:37:56.079Z,21.80
2022-10-22T15:40:23.113Z,21.60
2022-10-22T15:42:50.107Z,21.60
2022-10-22T15:45:17.153Z,21.40
2022-10-22T15:47:48.599Z,21.30
2022-10-22T15:50:16.582Z,21.10
2022-10-22T15:52:43.517Z,20.90
2022-10-22T15:55:10.752Z,20.70
2022-10-22T15:57:38.978Z,20.50
2022-10-22T16:00:07.585Z,20.40
2022-10-22T16:02:39.325Z,20.30
2022-10-22T16:05:06.771Z,20.10
2022-10-22T16:07:33.761Z,20.00
2022-10-22T16:10:01.638Z,19.80
2022-10-22T16:12:28.715Z,19.70
2022-10-22T16:14:55.810Z,19.50
2022-10-22T16:17:23.279Z,19.50
2022-10-22T16:19:50.325Z,19.40
2022-10-22T16:22:17.409Z,19.20
2022-10-22T16:24:44.409Z,19.10
2022-10-22T16:27:11.426Z,19.00
2022-10-22T16:29:42.043Z,18.90
2022-10-22T16:32:09.048Z,18.80
2022-10-22T16:34:36.040Z,18.70
2022-10-22T16:37:03.149Z,18.70
2022-10-22T16:39:30.171Z,18.60
2022-10-22T16:41:57.269Z,18.50
2022-10-22T16:44:24.215Z,18.50
2022-10-22T16:46:51.273Z,18.40
2022-10-22T16:49:18.325Z,18.30
2022-10-22T16:51:45.306Z,18.30
2022-10-22T16:54:13.518Z,18.20
2022-10-22T16:56:40.490Z,18.10
2022-10-22T16:59:07.868Z,18.10
2022-10-22T17:01:39.659Z,18.00
2022-10-22T17:04:07.879Z,18.00
2022-10-22T17:06:34.901Z,18.00
2022-10-22T17:09:02.062Z,17.90
2022-10-22T17:11:34.678Z,17.90
2022-10-22T17:14:02.418Z,17.90
2022-10-22T17:16:30.152Z,17.90
2022-10-22T17:18:58.281Z,17.80
2022-10-22T17:21:25.665Z,17.80
2022-10-22T17:23:57.238Z,17.80
2022-10-22T17:26:26.881Z,17.80
2022-10-22T17:28:54.665Z,17.70
2022-10-22T17:31:31.737Z,17.70
2022-10-22T17:34:00.075Z,17.70
2022-10-22T17:36:31.838Z,17.60
2022-10-22T17:39:04.853Z,17.60
2022-10-22T17:41:34.708Z,17.50
2022-10-22T17:44:06.763Z,17.50
2022-10-22T17:46:33.714Z,17.40
2022-10-22T17:49:06.982Z,17.30
2022-10-22T17:51:33.999Z,17.40
2022-10-22T17:54:02.475Z,17.30
2022-10-22T17:56:31.651Z,17.30
2022-10-22T17:59:01.707Z,17.30
2022-10-22T18:01:32.856Z,17.20
2022-10-22T18:04:02.382Z,17.20
2022-10-22T18:06:30.110Z,17.20
2022-10-22T18:08:57.089Z,17.20
2022-10-22T18:11:27.077Z,17.20
2022-10-22T18:13:56.216Z,17.10
2022-10-22T18:16:24.024Z,17.10
2022-10-22T18:18:53.476Z,17.10
2022-10-22T18:21:21.599Z,17.10
2022-10-22T18:23:48.935Z,17.10
2022-10-22T18:26:17.906Z,17.00
2022-10-22T18:28:46.450Z,17.10
2022-10-22T18:31:16.496Z,17.00
2022-10-22T18:33:44.112Z,17.10
2022-10-22T18:36:14.768Z,17.10
2022-10-22T18:38:41.781Z,17.00
2022-10-22T18:41:10.306Z,17.00
2022-10-22T18:43:37.484Z,17.00
2022-10-22T18:46:07.701Z,17.00
2022-10-22T18:48:36.110Z,16.90
2022-10-22T18:51:05.774Z,16.90
2022-10-22T18:53:33.305Z,16.90
2022-10-22T18:56:00.594Z,16.90
2022-10-22T18:58:27.533Z,16.90
2022-10-22T19:00:54.500Z,16.90
2022-10-22T19:03:21.707Z,16.90
2022-10-22T19:05:51.237Z,16.90
2022-10-22T19:08:19.563Z,16.90
2022-10-22T19:10:47.312Z,16.90
2022-10-22T19:13:16.474Z,16.90
2022-10-22T19:15:43.529Z,16.80
2022-10-22T19:18:10.892Z,16.80
2022-10-22T19:20:37.939Z,16.70
2022-10-22T19:23:05.903Z,16.70
2022-10-22T19:25:34.069Z,16.70
2022-10-22T19:28:01.084Z,16.70
2022-10-22T19:30:28.136Z,16.70
2022-10-22T19:32:55.177Z,16.70
2022-10-22T19:35:22.169Z,16.80
2022-10-22T19:37:49.272Z,16.80
2022-10-22T19:40:16.278Z,16.80
2022-10-22T19:42:46.971Z,16.90
2022-10-22T19:45:13.924Z,16.90
2022-10-22T19:47:42.163Z,16.90
2022-10-22T19:50:09.135Z,17.00
2022-10-22T19:52:36.064Z,17.00
2022-10-22T19:55:03.273Z,17.00
2022-10-22T19:57:30.258Z,17.00
2022-10-22T19:59:57.189Z,17.10
2022-10-22T20:02:24.353Z,17.00
2022-10-22T20:04:51.428Z,17.10
2022-10-22T20:07:18.456Z,17.10
2022-10-22T20:09:45.479Z,17.10
2022-10-22T20:12:12.423Z,17.10
2022-10-22T20:14:40.483Z,17.10
2022-10-22T20:17:07.639Z,17.10
2022-10-22T20:19:34.616Z,17.20
2022-10-22T20:22:01.747Z,17.20
2022-10-22T20:24:28.821Z,17.20
2022-10-22T20:26:55.736Z,17.10
2022-10-22T20:29:22.865Z,17.10
2022-10-22T20:31:50.066Z,17.10
2022-10-22T20:34:17.231Z,17.10
2022-10-22T20:36:44.202Z,17.00
2022-10-22T20:39:14.327Z,17.00
2022-10-22T20:41:41.428Z,17.00
2022-10-22T20:44:15.642Z,17.00
2022-10-22T20:46:42.931Z,17.00
2022-10-22T20:49:13.379Z,16.90
2022-10-22T20:51:40.830Z,16.80
2022-10-22T20:54:09.282Z,16.80
2022-10-22T20:56:39.555Z,16.80
2022-10-22T20:59:08.490Z,16.90
2022-10-22T21:01:44.434Z,16.90
2022-10-22T21:04:11.557Z,17.00
2022-10-22T21:06:40.375Z,17.00
2022-10-22T21:09:09.864Z,17.00
2022-10-22T21:11:38.159Z,16.90
2022-10-22T21:14:06.647Z,16.90
2022-10-22T21:16:34.224Z,16.80
2022-10-22T21:19:01.636Z,16.90
2022-10-22T21:21:28.848Z,17.00
2022-10-22T21:23:55.796Z,17.10
2022-10-22T21:26:22.745Z,17.20
2022-10-22T21:28:49.766Z,17.30
2022-10-22T21:31:26.077Z,17.30
2022-10-22T21:33:53.864Z,17.40
2022-10-22T21:36:23.184Z,17.40
2022-10-22T21:38:52.156Z,17.40
2022-10-22T21:41:21.079Z,17.40
2022-10-22T21:43:48.664Z,17.50
2022-10-22T21:46:24.192Z,17.50
2022-10-22T21:49:01.471Z,17.50
2022-10-22T21:51:30.972Z,17.50
2022-10-22T21:53:58.019Z,17.50
2022-10-22T21:56:28.090Z,17.60
2022-10-22T21:58:55.879Z,17.60
2022-10-22T22:01:23.324Z,17.70
2022-10-22T22:03:51.549Z,17.70
2022-10-22T22:06:22.017Z,17.70
2022-10-22T22:08:51.068Z,17.80
2022-10-22T22:11:23.522Z,17.80
2022-10-22T22:13:51.376Z,17.80
2022-10-22T22:16:25.412Z,17.80
2022-10-22T22:18:55.830Z,17.80
2022-10-22T22:21:22.953Z,17.80
2022-10-22T22:23:50.707Z,17.80
2022-10-22T22:26:25.267Z,17.80
2022-10-22T22:28:56.536Z,17.90
2022-10-22T22:31:35.023Z,17.80
2022-10-22T22:34:08.724Z,17.90
2022-10-22T22:36:37.418Z,17.90
2022-10-22T22:39:06.007Z,17.80
2022-10-22T22:41:33.196Z,17.80
2022-10-22T22:44:00.360Z,17.80
2022-10-22T22:46:27.397Z,17.80
2022-10-22T22:48:54.380Z,17.80
2022-10-22T22:51:21.330Z,17.80
2022-10-22T22:53:48.295Z,17.80
2022-10-22T22:56:18.117Z,17.80
2022-10-22T22:58:45.161Z,17.80
2022-10-22T23:01:14.982Z,17.70
2022-10-22T23:03:43.158Z,17.60
2022-10-22T23:06:11.059Z,17.50
2022-10-22T23:08:38.112Z,17.50
2022-10-22T23:11:10.943Z,17.40
2022-10-22T23:13:38.383Z,17.40
2022-10-22T23:16:14.273Z,17.30
2022-10-22T23:18:41.572Z,17.30
2022-10-22T23:21:14.491Z,17.20
2022-10-22T23:23:46.261Z,17.20
2022-10-22T23:26:14.531Z,17.20
2022-10-22T23:28:41.522Z,17.20
2022-10-22T23:31:10.715Z,17.20
2022-10-22T23:33:37.640Z,17.20
2022-10-22T23:36:07.828Z,17.20
2022-10-22T23:38:36.490Z,17.30
2022-10-22T23:41:04.404Z,17.30
2022-10-22T23:43:32.627Z,17.30
2022-10-22T23:45:59.611Z,17.30
2022-10-22T23:48:26.513Z,17.40
2022-10-22T23:53:25.290Z,17.40
2022-10-22T23:55:52.198Z,17.40
2022-10-22T23:58:19.150Z,17.50
